Time;durP1;ratioP1;P1;durP2;ratioP2;P2;SDS_P1;SDS_P2;PMS_P1;PMS_P2;Temp;Humidity;BMP_temperature;BMP_pressure;BME280_temperature;BME280_humidity;BME280_pressure;Samples;Min_cycle;Max_cycle;Signal;HPM_P1;HPM_P2
2022/06/02 00:01:08;;;;;;;0.90;0.60;;;;;;;12.33;57.59;100722.78;5048362;28;20044;-71
2022/06/02 00:03:42;;;;;;;;;;;;;;;12.43;58.20;100720.00;5048220;28;20460;-71
2022/06/02 00:06:45;;;;;;;2.03;1.00;;;;;;;12.50;58.77;100724.53;5044747;28;19925;-71
2022/06/02 00:09:29;;;;;;;1.48;1.02;;;;;;;12.53;58.61;100726.84;5045913;28;20041;-71
2022/06/02 00:12:04;;;;;;;1.98;1.15;;;;;;;12.58;58.36;100723.72;5046260;28;20051;-70
2022/06/02 00:14:35;;;;;;;1.75;1.05;;;;;;;12.74;59.02;100728.25;5044639;28;20463;-70
2022/06/02 00:17:16;;;;;;;1.20;0.90;;;;;;;12.85;58.82;100727.97;5044496;28;20691;-70
2022/06/02 00:19:48;;;;;;;2.53;1.30;;;;;;;12.83;59.21;100737.91;5046029;28;20045;-70
2022/06/02 00:22:34;;;;;;;3.50;1.20;;;;;;;12.81;59.87;100728.44;5045533;28;20037;-70
2022/06/02 00:25:09;;;;;;;1.83;1.17;;;;;;;12.85;59.04;100729.78;5045025;28;20025;-71
2022/06/02 00:27:41;;;;;;;3.15;1.20;;;;;;;12.81;58.89;100734.59;5043284;28;20037;-70
2022/06/02 00:30:33;;;;;;;2.10;1.20;;;;;;;12.79;59.63;100739.22;5045071;28;20052;-71
2022/06/02 00:33:19;;;;;;;2.35;1.17;;;;;;;12.82;59.16;100736.22;5044779;28;20033;-71
2022/06/02 00:35:57;;;;;;;2.60;1.20;;;;;;;12.80;59.19;100730.28;5044124;28;20509;-70
2022/06/02 00:38:29;;;;;;;1.98;1.17;;;;;;;12.81;59.17;100733.75;5044838;28;20045;-70
2022/06/02 00:41:04;;;;;;;3.65;1.45;;;;;;;12.80;59.35;100738.25;5046087;28;20045;-71
2022/06/02 00:43:30;;;;;;;2.22;1.30;;;;;;;12.77;59.21;100743.84;5040406;28;20638;-71
2022/06/02 00:46:11;;;;;;;2.28;1.38;;;;;;;12.77;59.60;100743.84;5049768;28;20033;-71
2022/06/02 00:48:51;;;;;;;2.75;1.70;;;;;;;12.75;60.10;100754.66;5045217;28;20029;-70
2022/06/02 00:51:28;;;;;;;3.20;1.40;;;;;;;12.69;59.54;100754.44;5044036;28;20029;-71
2022/06/02 00:57:30;;;;;;;1.90;1.20;;;;;;;12.38;60.26;100757.63;5041216;28;20128;-70
2022/06/02 01:00:22;;;;;;;1.48;1.02;;;;;;;12.25;60.32;100766.00;5044494;28;20360;-70
2022/06/02 01:03:03;;;;;;;1.83;1.20;;;;;;;12.13;60.42;100767.22;5045645;28;20091;-72
2022/06/02 01:06:12;;;;;;;1.52;1.00;;;;;;;11.99;61.35;100768.66;5044999;28;20036;-71
2022/06/02 01:09:14;;;;;;;1.70;1.27;;;;;;;11.81;61.58;100775.78;5043994;28;20438;-70
2022/06/02 01:11:46;;;;;;;;;;;;;;;11.68;61.68;100770.88;5049411;28;20036;-71
2022/06/02 01:14:37;;;;;;;1.60;1.20;;;;;;;11.68;61.91;100771.69;5055011;28;20384;-70
2022/06/02 01:17:19;;;;;;;2.20;1.40;;;;;;;11.72;61.78;100761.63;5049659;28;20040;-71
2022/06/02 01:19:56;;;;;;;2.08;1.30;;;;;;;11.74;62.13;100761.47;5048806;28;20417;-70
2022/06/02 01:22:27;;;;;;;1.67;1.25;;;;;;;11.74;62.20;100772.91;5048183;28;20110;-70
2022/06/02 01:25:02;;;;;;;;;;;;;;;11.74;63.21;100767.59;5047216;28;20091;-71
2022/06/02 01:27:38;;;;;;;2.47;1.20;;;;;;;11.72;62.38;100768.75;5046061;28;20002;-71
2022/06/02 01:30:20;;;;;;;1.98;1.20;;;;;;;11.63;62.78;100765.19;5043679;28;20056;-70
2022/06/02 01:33:01;;;;;;;1.65;1.10;;;;;;;11.53;62.89;100764.44;5044388;28;20552;-70
2022/06/02 01:35:36;;;;;;;;;;;;;;;11.40;64.02;100756.88;5046743;28;20048;-71
2022/06/02 01:38:06;;;;;;;2.63;1.58;;;;;;;11.29;63.15;100767.69;5043594;28;20019;-70
2022/06/02 01:40:56;;;;;;;2.05;1.50;;;;;;;11.23;64.26;100772.59;5044866;28;20033;-71
2022/06/02 01:43:37;;;;;;;1.88;1.38;;;;;;;11.10;65.46;100772.13;5045057;28;20049;-71
2022/06/02 01:46:29;;;;;;;1.98;1.25;;;;;;;11.00;64.36;100781.94;5040574;28;20083;-70
2022/06/02 01:49:02;;;;;;;2.10;1.50;;;;;;;10.87;64.66;100776.16;5044545;28;20036;-71
2022/06/02 01:51:57;;;;;;;1.67;1.30;;;;;;;10.77;65.88;100782.34;5044854;28;20033;-70
2022/06/02 01:54:22;;;;;;;1.88;1.40;;;;;;;10.68;65.92;100777.94;5045171;28;20033;-70
2022/06/02 01:57:21;;;;;;;1.97;1.40;;;;;;;10.57;66.83;100780.78;5044178;28;20399;-70
2022/06/02 02:00:10;;;;;;;5.13;1.80;;;;;;;10.46;65.93;100776.47;5043482;28;20292;-70
2022/06/02 02:03:05;;;;;;;1.60;1.30;;;;;;;10.39;66.21;100775.38;5042227;28;20056;-70
2022/06/02 02:05:56;;;;;;;2.22;1.30;;;;;;;10.32;65.74;100774.31;5042128;28;20150;-70
2022/06/02 02:08:31;;;;;;;3.33;1.30;;;;;;;10.25;65.69;100789.03;5044577;28;20658;-70
2022/06/02 02:11:22;;;;;;;2.22;1.40;;;;;;;10.34;66.19;100785.56;5043245;28;20029;-70
2022/06/02 02:14:03;;;;;;;1.83;1.38;;;;;;;10.46;65.99;100783.59;5041288;28;20398;-70
2022/06/02 02:16:38;;;;;;;2.67;1.55;;;;;;;10.51;66.00;100783.97;5038509;28;20399;-71
2022/06/02 02:19:14;;;;;;;2.38;1.40;;;;;;;10.48;65.93;100786.91;5039980;28;20049;-70
2022/06/02 02:22:08;;;;;;;3.05;1.20;;;;;;;10.40;66.77;100782.38;5045114;28;20048;-71
2022/06/02 02:24:45;;;;;;;2.28;1.33;;;;;;;10.32;66.57;100787.50;5041713;28;20040;-71
2022/06/02 02:27:26;;;;;;;1.52;1.30;;;;;;;10.24;66.40;100785.56;5047590;28;20037;-70
2022/06/02 02:30:09;;;;;;;2.00;1.20;;;;;;;10.18;66.42;100794.09;5047895;28;20489;-70
2022/06/02 02:32:45;;;;;;;2.28;1.20;;;;;;;10.13;66.65;100798.94;5045094;28;20115;-70
2022/06/02 02:35:16;;;;;;;2.75;1.30;;;;;;;10.10;66.87;100800.06;5047850;28;20047;-70
2022/06/02 02:37:55;;;;;;;2.17;1.25;;;;;;;10.05;67.38;100797.00;5047869;28;20124;-70
2022/06/02 02:40:28;;;;;;;2.92;1.40;;;;;;;9.99;67.21;100801.06;5047775;28;20087;-70
2022/06/02 02:43:01;;;;;;;1.50;1.10;;;;;;;9.97;66.99;100802.19;5048890;28;20040;-70
2022/06/02 02:45:41;;;;;;;1.65;1.30;;;;;;;9.91;67.65;100800.91;5051660;28;20115;-70
2022/06/02 02:48:19;;;;;;;2.42;1.20;;;;;;;9.85;67.39;100798.84;5042816;28;20041;-70
2022/06/02 02:51:11;;;;;;;2.20;1.10;;;;;;;9.82;67.22;100793.88;5044138;28;20955;-70
2022/06/02 02:53:44;;;;;;;2.00;1.30;;;;;;;9.86;68.15;100800.50;5045016;28;20132;-70
2022/06/02 02:56:31;;;;;;;2.60;1.50;;;;;;;9.93;68.04;100809.53;5044552;28;20044;-70
2022/06/02 02:59:17;;;;;;;4.07;1.92;;;;;;;9.97;68.13;100810.09;5045986;28;20084;-70
2022/06/02 03:02:02;;;;;;;1.92;1.15;;;;;;;9.99;67.66;100806.34;5048704;28;20033;-70
2022/06/02 03:04:55;;;;;;;1.60;1.38;;;;;;;9.98;68.62;100815.22;5047341;28;20041;-70
2022/06/02 03:07:21;;;;;;;2.53;1.50;;;;;;;9.97;68.82;100813.56;5047993;28;20037;-71
2022/06/02 03:09:58;;;;;;;3.50;1.60;;;;;;;9.93;68.21;100816.63;5048594;28;20090;-70
2022/06/02 03:12:42;;;;;;;1.50;1.38;;;;;;;9.86;68.00;100813.72;5048175;28;20513;-70
2022/06/02 03:15:23;;;;;;;2.95;1.52;;;;;;;9.84;68.52;100818.28;5047916;28;20041;-71
2022/06/02 03:17:51;;;;;;;2.30;1.38;;;;;;;9.83;68.08;100821.09;5049528;28;20044;-71
2022/06/02 03:20:32;;;;;;;1.67;1.35;;;;;;;9.84;67.86;100823.59;5048073;28;20127;-70
2022/06/02 03:23:16;;;;;;;;;;;;;;;9.89;68.08;100831.09;5049075;28;20052;-70
2022/06/02 03:25:47;;;;;;;2.92;1.50;;;;;;;9.94;67.70;100834.16;5049455;28;19924;-70
2022/06/02 03:28:50;;;;;;;2.07;1.60;;;;;;;9.94;67.98;100837.63;5047691;28;20035;-70
2022/06/02 03:31:34;;;;;;;3.38;1.50;;;;;;;9.96;67.46;100830.41;5047469;28;20891;-70
2022/06/02 03:34:13;;;;;;;2.05;1.52;;;;;;;9.96;67.58;100826.91;5046142;28;20025;-70
2022/06/02 03:36:53;;;;;;;2.10;1.40;;;;;;;9.97;67.57;100840.00;5044522;28;20033;-70
2022/06/02 03:39:33;;;;;;;2.70;1.80;;;;;;;10.02;67.46;100836.94;5045834;28;20617;-70
2022/06/02 03:42:05;;;;;;;2.17;1.73;;;;;;;10.05;67.56;100839.28;5046687;28;20037;-70
2022/06/02 03:44:33;;;;;;;2.47;1.77;;;;;;;10.06;67.65;100845.41;5047556;28;20040;-71
2022/06/02 03:46:59;;;;;;;3.05;2.08;;;;;;;10.05;67.51;100849.84;5046384;28;20033;-70
2022/06/02 03:49:58;;;;;;;2.90;1.60;;;;;;;10.05;67.48;100855.13;5047281;28;20390;-70
2022/06/02 03:52:37;;;;;;;1.60;1.40;;;;;;;10.05;67.55;100852.50;5045634;28;20040;-70
2022/06/02 03:55:25;;;;;;;1.92;1.40;;;;;;;10.03;68.19;100851.78;5045841;28;20037;-71
2022/06/02 03:58:05;;;;;;;2.28;1.75;;;;;;;9.99;69.27;100853.06;5046863;28;20037;-70
2022/06/02 04:00:54;;;;;;;3.08;2.08;;;;;;;10.08;68.17;100856.66;5047032;28;20041;-70
2022/06/02 04:03:59;;;;;;;2.50;1.80;;;;;;;10.11;67.56;100862.50;5047134;28;20559;-70
2022/06/02 04:06:56;;;;;;;2.20;1.50;;;;;;;10.12;67.66;100869.44;5046231;28;20124;-70
2022/06/02 04:09:33;;;;;;;2.85;1.60;;;;;;;10.17;67.95;100861.94;5047467;28;20064;-70
2022/06/02 04:15:25;;;;;;;1.95;1.42;;;;;;;10.18;68.28;100862.78;5048077;28;20520;-70
2022/06/02 04:18:18;;;;;;;2.20;1.60;;;;;;;10.18;68.65;100862.78;5045907;28;20114;-71
2022/06/02 04:21:22;;;;;;;2.58;1.50;;;;;;;10.25;68.27;100857.75;5044241;28;20112;-70
2022/06/02 04:23:59;;;;;;;2.50;1.50;;;;;;;10.30;68.01;100866.97;5033638;28;20486;-70
2022/06/02 04:26:56;;;;;;;1.65;1.30;;;;;;;10.34;68.08;100864.88;5047203;28;20055;-70
2022/06/02 04:30:01;;;;;;;3.55;1.60;;;;;;;10.38;67.54;100868.91;5054064;28;20502;-70
2022/06/02 04:32:51;;;;;;;2.78;1.65;;;;;;;10.39;67.60;100866.13;5047059;28;20052;-70
2022/06/02 04:35:38;;;;;;;1.70;1.27;;;;;;;10.45;67.26;100871.81;5048111;28;20033;-71
2022/06/02 04:38:28;;;;;;;2.22;1.50;;;;;;;10.51;67.91;100868.59;5045892;28;20401;-70
2022/06/02 04:41:15;;;;;;;1.55;1.33;;;;;;;10.58;67.43;100880.25;5046493;28;20040;-70
2022/06/02 04:43:46;;;;;;;2.92;1.70;;;;;;;10.64;67.43;100882.34;5043159;28;20036;-71
2022/06/02 04:46:19;;;;;;;2.50;1.40;;;;;;;10.71;67.37;100880.78;5045167;28;20049;-71
2022/06/02 04:48:52;;;;;;;2.13;1.50;;;;;;;10.76;67.04;100885.66;5045417;28;20043;-70
2022/06/02 04:51:34;;;;;;;2.13;1.63;;;;;;;10.84;67.30;100891.03;5044557;28;20033;-71
2022/06/02 04:54:19;;;;;;;;;;;;;;;10.88;67.39;100889.78;5046399;28;20087;-70
2022/06/02 04:57:26;;;;;;;1.85;1.50;;;;;;;10.94;66.87;100888.34;5043766;28;19920;-71
2022/06/02 05:00:27;;;;;;;1.90;1.50;;;;;;;10.97;66.79;100883.63;5045459;28;20048;-70
2022/06/02 05:03:09;;;;;;;2.28;1.50;;;;;;;11.00;66.50;100879.84;5042881;28;20489;-70
2022/06/02 05:05:42;;;;;;;2.10;1.42;;;;;;;11.02;66.85;100878.72;5042197;28;20037;-70
2022/06/02 05:08:26;;;;;;;1.90;1.70;;;;;;;11.09;66.93;100880.81;5044484;28;20492;-71
2022/06/02 05:10:57;;;;;;;2.47;1.88;;;;;;;11.25;66.60;100886.28;5044163;28;20040;-70
2022/06/02 05:13:55;;;;;;;2.15;1.58;;;;;;;11.37;66.56;100889.56;5046495;28;20036;-71
2022/06/02 05:16:42;;;;;;;2.30;1.65;;;;;;;11.53;65.76;100884.44;5044327;28;20040;-71
2022/06/02 05:19:41;;;;;;;3.40;2.33;;;;;;;11.68;65.06;100893.56;5041916;28;20029;-70
2022/06/02 05:22:17;;;;;;;2.58;1.80;;;;;;;11.83;64.76;100885.91;5042641;28;20064;-71
2022/06/02 05:25:04;;;;;;;2.63;1.80;;;;;;;12.03;64.51;100893.72;5040668;28;20120;-71
2022/06/02 05:27:33;;;;;;;2.60;1.60;;;;;;;12.25;63.76;100887.13;5045299;28;20056;-71
2022/06/02 05:30:43;;;;;;;2.00;1.50;;;;;;;12.47;63.36;100889.28;5046464;28;20649;-70
2022/06/02 05:33:17;;;;;;;2.03;1.67;;;;;;;12.62;63.00;100894.84;5026802;28;20244;-70
2022/06/02 05:35:53;;;;;;;4.22;2.03;;;;;;;12.77;61.93;100892.44;5044659;28;20041;-71
2022/06/02 05:38:18;;;;;;;2.65;1.98;;;;;;;12.92;61.74;100898.03;5044105;28;20029;-70
2022/06/02 05:41:01;;;;;;;3.80;1.90;;;;;;;13.11;61.56;100897.78;5046230;28;20102;-71
2022/06/02 05:43:53;;;;;;;2.35;1.92;;;;;;;13.45;61.31;100898.78;5047365;28;20652;-71
2022/06/02 05:46:35;;;;;;;2.55;1.88;;;;;;;13.99;60.37;100892.06;5044035;28;20034;-71
2022/06/02 05:49:26;;;;;;;2.05;1.70;;;;;;;14.68;59.32;100905.00;5044149;28;20528;-71
2022/06/02 05:52:27;;;;;;;4.63;2.95;;;;;;;15.26;57.92;100911.00;5043351;28;20072;-71
2022/06/02 05:55:27;;;;;;;4.07;2.05;;;;;;;15.80;56.92;100912.91;5043080;28;20033;-71
2022/06/02 05:58:16;;;;;;;2.30;1.58;;;;;;;16.42;56.08;100906.59;5044419;28;20077;-72
2022/06/02 06:00:54;;;;;;;2.22;1.50;;;;;;;16.92;55.08;100914.00;5044967;28;20033;-72
2022/06/02 06:03:37;;;;;;;2.28;1.27;;;;;;;17.53;54.38;100912.91;5047436;28;20033;-72
2022/06/02 06:06:29;;;;;;;2.45;1.67;;;;;;;18.04;52.52;100920.88;5048069;28;20033;-72
2022/06/02 06:08:57;;;;;;;;;;;;;;;18.27;49.67;100923.34;5050312;28;20056;-72
2022/06/02 06:11:42;;;;;;;3.10;1.75;;;;;;;18.57;49.55;100926.69;5048190;28;20003;-72
2022/06/02 06:14:26;;;;;;;2.53;1.65;;;;;;;18.97;48.97;100932.34;5050420;28;20037;-72
2022/06/02 06:17:10;;;;;;;2.28;1.20;;;;;;;19.51;48.89;100923.53;5046641;28;20044;-72
2022/06/02 06:20:06;;;;;;;3.03;1.50;;;;;;;19.97;46.54;100922.03;5045711;28;20045;-72
2022/06/02 06:22:32;;;;;;;2.58;1.50;;;;;;;20.07;45.87;100927.00;5049752;28;20036;-72
2022/06/02 06:25:03;;;;;;;3.05;1.70;;;;;;;20.25;45.63;100929.09;5048929;28;20029;-72
2022/06/02 06:27:44;;;;;;;2.95;1.80;;;;;;;20.41;45.00;100934.06;5050586;28;20068;-72
2022/06/02 06:30:23;;;;;;;3.63;1.40;;;;;;;20.50;44.30;100932.81;5047537;28;20036;-72
2022/06/02 06:32:59;;;;;;;;;;;;;;;20.80;43.32;100935.09;5048273;28;20033;-72
2022/06/02 06:35:41;;;;;;;2.47;1.20;;;;;;;21.00;43.28;100925.13;5049614;28;19971;-72
2022/06/02 06:38:40;;;;;;;2.30;1.40;;;;;;;21.02;42.68;100926.75;5047139;28;20029;-72
2022/06/02 06:41:33;;;;;;;1.90;1.13;;;;;;;21.34;43.05;100927.72;5047643;28;20048;-72
2022/06/02 06:44:22;;;;;;;2.22;1.30;;;;;;;21.55;41.93;100932.00;5047509;28;20025;-72
2022/06/02 06:47:14;;;;;;;1.88;1.40;;;;;;;21.71;41.14;100934.16;5050411;28;20036;-73
2022/06/02 06:50:01;;;;;;;3.33;1.33;;;;;;;21.83;41.00;100927.09;5056156;28;20413;-72
2022/06/02 06:52:58;;;;;;;2.03;1.48;;;;;;;21.68;40.12;100923.03;5047525;28;20041;-72
2022/06/02 06:55:44;;;;;;;2.25;1.23;;;;;;;21.72;40.56;100916.19;5047579;28;20091;-72
2022/06/02 06:58:28;;;;;;;2.00;1.30;;;;;;;21.79;40.17;100917.78;5045930;28;20103;-72
2022/06/02 07:01:03;;;;;;;2.05;1.23;;;;;;;21.76;39.14;100915.53;5048195;28;20037;-72
2022/06/02 07:03:34;;;;;;;3.05;1.50;;;;;;;21.66;39.64;100912.47;5063743;28;20060;-72
2022/06/02 07:06:10;;;;;;;2.85;1.52;;;;;;;21.82;39.86;100913.81;5047116;28;20535;-72
2022/06/02 07:08:59;;;;;;;2.08;1.20;;;;;;;21.92;39.20;100918.72;5045829;28;20095;-72
2022/06/02 07:14:44;;;;;;;2.63;1.10;;;;;;;22.57;37.70;100922.00;5041611;28;20048;-73
2022/06/02 07:17:32;;;;;;;1.52;0.80;;;;;;;22.89;37.71;100925.41;5046244;28;20030;-72
2022/06/02 07:20:15;;;;;;;2.05;1.15;;;;;;;23.26;36.30;100928.16;5044577;28;20033;-72
2022/06/02 07:22:51;;;;;;;1.40;1.00;;;;;;;23.49;36.47;100929.31;5045989;28;20127;-72
2022/06/02 07:25:21;;;;;;;1.10;0.90;;;;;;;23.72;35.56;100931.28;5047429;28;20626;-72
2022/06/02 07:27:58;;;;;;;1.23;0.95;;;;;;;23.98;35.02;100931.97;5047252;28;20051;-73
2022/06/02 07:30:24;;;;;;;2.08;0.68;;;;;;;24.19;35.20;100923.31;5046202;28;20039;-73
2022/06/02 07:33:03;;;;;;;1.85;0.70;;;;;;;24.55;34.71;100932.31;5046977;28;20092;-72
2022/06/02 07:35:58;;;;;;;2.25;1.00;;;;;;;24.54;34.23;100926.09;5049487;28;20125;-72
2022/06/02 07:38:52;;;;;;;0.70;0.60;;;;;;;24.92;33.42;100921.25;5044745;28;20122;-73
2022/06/02 07:41:43;;;;;;;1.80;0.90;;;;;;;24.89;33.36;100916.34;5047708;28;20489;-73
2022/06/02 07:44:25;;;;;;;1.75;1.13;;;;;;;24.93;31.98;100914.78;5045357;28;20045;-73
2022/06/02 07:47:33;;;;;;;1.10;0.80;;;;;;;24.99;32.19;100911.13;5045757;28;20489;-73
2022/06/02 07:50:20;;;;;;;1.50;0.85;;;;;;;24.97;31.96;100897.03;5033805;28;20091;-72
2022/06/02 07:53:00;;;;;;;1.13;0.77;;;;;;;25.09;31.47;100903.22;5045179;28;20041;-72
2022/06/02 07:55:49;;;;;;;1.92;0.77;;;;;;;25.49;31.30;100901.63;5048596;28;20044;-73
2022/06/02 07:58:44;;;;;;;2.17;1.08;;;;;;;25.57;29.90;100904.75;5047759;28;20055;-73
2022/06/02 08:01:18;;;;;;;0.80;0.60;;;;;;;26.01;29.96;100902.31;5043973;28;20060;-73
2022/06/02 08:03:55;;;;;;;1.17;0.80;;;;;;;25.81;29.46;100907.34;5050539;28;20049;-73
2022/06/02 08:06:35;;;;;;;1.92;1.00;;;;;;;25.91;28.17;100901.31;5044633;28;20044;-71
2022/06/02 08:09:27;;;;;;;1.67;0.90;;;;;;;26.04;28.60;100901.81;5056561;28;20037;-71
2022/06/02 08:11:56;;;;;;;1.17;0.63;;;;;;;26.15;28.52;100902.81;5046461;28;20036;-71
2022/06/02 08:14:35;;;;;;;1.27;0.60;;;;;;;26.85;28.62;100912.28;5048376;28;20529;-71
2022/06/02 08:17:28;;;;;;;0.50;0.40;;;;;;;27.60;28.46;100920.81;5045582;28;20040;-71
2022/06/02 08:20:18;;;;;;;0.75;0.50;;;;;;;28.00;27.25;100924.22;5049774;28;20044;-71
2022/06/02 08:23:21;;;;;;;1.75;0.77;;;;;;;28.52;26.61;100918.94;5051917;28;20037;-71
2022/06/02 08:25:54;;;;;;;1.65;0.60;;;;;;;29.19;26.52;100922.84;5045255;28;20065;-71
2022/06/02 08:28:35;;;;;;;1.80;0.80;;;;;;;29.70;26.00;100922.22;5045585;28;20044;-72
2022/06/02 08:31:38;;;;;;;1.70;0.90;;;;;;;30.16;25.31;100924.16;5045526;28;20090;-71
2022/06/02 08:34:21;;;;;;;1.02;0.60;;;;;;;30.47;25.27;100916.78;5045528;28;20029;-72
2022/06/02 08:37:42;;;;;;;1.23;0.70;;;;;;;30.15;23.07;100917.88;5044469;28;20037;-72
2022/06/02 08:40:16;;;;;;;1.90;0.88;;;;;;;29.63;24.70;100913.44;5001980;28;20097;-72
2022/06/02 08:42:53;;;;;;;2.20;1.17;;;;;;;29.42;24.13;100909.84;5044479;28;20029;-71
2022/06/02 08:46:09;;;;;;;2.45;0.93;;;;;;;29.12;25.12;100916.00;5046045;28;20501;-74
2022/06/02 08:48:55;;;;;;;1.48;0.80;;;;;;;29.35;24.81;100910.09;5046798;28;20086;-73
2022/06/02 08:52:04;;;;;;;3.70;0.70;;;;;;;29.85;24.85;100916.78;5048397;28;20068;-71
2022/06/02 08:54:32;;;;;;;1.45;0.70;;;;;;;30.24;24.22;100910.75;5046124;28;20390;-73
2022/06/02 08:57:15;;;;;;;1.33;0.70;;;;;;;29.91;24.09;100912.13;5049817;28;20091;-73
2022/06/02 09:00:09;;;;;;;1.20;0.70;;;;;;;29.48;23.63;100910.69;5050130;28;20037;-71
2022/06/02 09:03:04;;;;;;;1.35;0.70;;;;;;;29.18;24.29;100920.41;5047162;28;20041;-73
2022/06/02 09:05:49;;;;;;;0.70;0.50;;;;;;;29.79;24.12;100922.47;5050276;28;20037;-71
2022/06/02 09:08:43;;;;;;;0.93;0.55;;;;;;;29.97;23.51;100918.44;5048892;28;20091;-71
2022/06/02 09:11:27;;;;;;;1.02;0.68;;;;;;;29.82;23.89;100917.31;5050041;28;20045;-71
2022/06/02 09:14:20;;;;;;;0.75;0.50;;;;;;;30.09;23.73;100921.69;5049112;28;20033;-73
2022/06/02 09:17:11;;;;;;;1.00;0.60;;;;;;;29.94;23.29;100927.97;5058316;28;20514;-71
2022/06/02 09:20:06;;;;;;;0.65;0.60;;;;;;;30.33;22.67;100919.25;5049715;28;20506;-71
2022/06/02 09:22:56;;;;;;;1.05;0.60;;;;;;;30.37;22.32;100919.53;5045995;28;20135;-71
2022/06/02 09:25:36;;;;;;;0.80;0.60;;;;;;;30.51;22.23;100919.75;5043822;28;20410;-71
2022/06/02 09:28:29;;;;;;;1.75;0.60;;;;;;;30.11;22.33;100911.34;5049858;28;20029;-71
2022/06/02 09:31:22;;;;;;;1.35;0.80;;;;;;;29.85;22.91;100911.31;5050413;28;20033;-71
2022/06/02 09:34:07;;;;;;;1.10;0.80;;;;;;;29.79;23.00;100911.59;5050179;28;20064;-71
2022/06/02 09:36:53;;;;;;;1.02;0.65;;;;;;;29.64;23.44;100906.91;5047470;28;20037;-71
2022/06/02 09:39:49;;;;;;;1.60;0.70;;;;;;;29.87;22.98;100908.34;5053502;28;20444;-73
2022/06/02 09:42:26;;;;;;;1.02;0.63;;;;;;;29.53;23.05;100900.63;5052199;28;20036;-74
2022/06/02 09:45:38;;;;;;;1.17;0.65;;;;;;;29.87;23.20;100900.16;5048676;28;20065;-72
2022/06/02 09:48:41;;;;;;;1.20;0.60;;;;;;;29.87;22.55;100900.16;5052705;28;20037;-73
2022/06/02 09:51:35;;;;;;;2.70;0.60;;;;;;;30.30;22.28;100903.44;5051748;28;20040;-72
2022/06/02 09:54:37;;;;;;;1.30;0.70;;;;;;;30.59;21.60;100903.66;5052645;28;20036;-72
2022/06/02 10:00:40;;;;;;;0.85;0.60;;;;;;;31.29;21.94;100892.75;5046519;28;20107;-74
2022/06/02 10:03:26;;;;;;;0.95;0.60;;;;;;;31.44;21.87;100902.00;5051120;28;20163;-71
2022/06/02 10:06:04;;;;;;;2.53;0.85;;;;;;;31.46;21.19;100899.78;5050066;28;20068;-72
2022/06/02 10:08:47;;;;;;;2.10;0.75;;;;;;;30.99;21.44;100903.84;5050143;28;20452;-72
2022/06/02 10:11:27;;;;;;;1.25;0.63;;;;;;;31.28;21.93;100904.78;5052402;28;20061;-72
2022/06/02 10:14:02;;;;;;;1.20;0.70;;;;;;;32.02;21.04;100909.56;5051051;28;20116;-74
2022/06/02 10:16:55;;;;;;;1.13;0.70;;;;;;;32.67;20.20;100906.47;5045900;28;20033;-74
2022/06/02 10:19:48;;;;;;;1.35;0.55;;;;;;;32.94;20.26;100908.63;5045317;28;20502;-73
2022/06/02 10:22:20;;;;;;;1.10;0.70;;;;;;;32.64;20.02;100905.16;5050472;28;20083;-74
2022/06/02 10:25:23;;;;;;;2.42;0.80;;;;;;;32.19;20.83;100909.13;5052813;28;20567;-73
2022/06/02 10:28:17;;;;;;;1.45;0.73;;;;;;;31.86;20.79;100904.16;5051559;28;20452;-74
2022/06/02 10:31:11;;;;;;;0.98;0.63;;;;;;;32.03;21.31;100902.97;5052517;28;20061;-74
2022/06/02 10:34:12;;;;;;;0.80;0.60;;;;;;;31.75;21.62;100894.44;5051635;28;20639;-73
2022/06/02 10:37:00;;;;;;;1.33;0.70;;;;;;;31.81;21.30;100892.47;5040726;28;20036;-73
2022/06/02 10:39:25;;;;;;;1.67;0.93;;;;;;;31.79;21.17;100891.91;5050939;28;20513;-73
2022/06/02 10:42:02;;;;;;;1.97;1.00;;;;;;;32.05;21.13;100895.28;5050976;28;20033;-73
2022/06/02 10:44:38;;;;;;;2.80;0.90;;;;;;;32.08;20.60;100892.78;5047711;28;20268;-73
2022/06/02 10:47:40;;;;;;;1.25;0.60;;;;;;;32.39;20.02;100897.97;5051566;28;20041;-73
2022/06/02 10:50:33;;;;;;;0.82;0.60;;;;;;;33.41;19.60;100890.47;5050314;28;20032;-73
2022/06/02 10:53:29;;;;;;;2.15;0.75;;;;;;;34.27;18.40;100890.22;5049321;28;20052;-73
2022/06/02 10:56:00;;;;;;;0.95;0.60;;;;;;;34.64;18.28;100886.53;5053360;28;20091;-73
2022/06/02 10:58:44;;;;;;;0.95;0.50;;;;;;;34.54;18.34;100889.47;5050789;28;20124;-73
2022/06/02 11:01:28;;;;;;;1.20;0.50;;;;;;;34.23;19.15;100887.28;5049831;28;20033;-73
2022/06/02 11:03:59;;;;;;;2.08;0.60;;;;;;;34.09;19.08;100880.97;5049153;28;20037;-73
2022/06/02 11:06:55;;;;;;;0.85;0.47;;;;;;;33.42;18.64;100884.72;5048449;28;20048;-73
2022/06/02 11:09:32;;;;;;;0.70;0.47;;;;;;;32.78;20.11;100878.69;5045374;28;20083;-73
2022/06/02 11:12:03;;;;;;;0.40;0.40;;;;;;;32.46;20.12;100879.28;5049945;28;20499;-73
2022/06/02 11:15:17;;;;;;;1.35;0.70;;;;;;;32.46;20.24;100881.22;5049770;28;20041;-73
2022/06/02 11:18:02;;;;;;;1.30;0.65;;;;;;;32.45;20.64;100874.94;5027134;28;20110;-73
2022/06/02 11:21:09;;;;;;;1.58;0.70;;;;;;;32.31;19.90;100871.25;5045423;28;20048;-73
2022/06/02 11:23:45;;;;;;;1.27;0.63;;;;;;;32.81;19.61;100871.00;5046399;28;20699;-73
2022/06/02 11:26:31;;;;;;;1.33;0.65;;;;;;;33.34;18.80;100874.41;5048669;28;20495;-73
2022/06/02 11:29:15;;;;;;;2.40;0.70;;;;;;;34.36;18.54;100868.41;5048599;28;20033;-73
2022/06/02 11:31:59;;;;;;;1.63;0.70;;;;;;;34.30;18.18;100866.84;5047687;28;20087;-73
2022/06/02 11:34:44;;;;;;;1.15;0.55;;;;;;;34.77;18.04;100857.41;5043910;28;20041;-73
2022/06/02 11:37:45;;;;;;;1.17;0.68;;;;;;;35.31;16.87;100858.47;5047439;28;20040;-73
2022/06/02 11:40:41;;;;;;;0.88;0.70;;;;;;;34.15;18.25;100862.47;5045837;28;21424;-73
2022/06/02 11:43:16;;;;;;;1.27;0.68;;;;;;;33.45;18.63;100860.56;5047217;28;20494;-73
2022/06/02 11:46:14;;;;;;;1.70;0.60;;;;;;;33.68;18.23;100856.94;5048531;28;20575;-73
2022/06/02 11:48:43;;;;;;;1.67;0.43;;;;;;;34.52;18.72;100855.19;5056577;28;20037;-73
2022/06/02 11:51:38;;;;;;;1.10;0.60;;;;;;;34.84;17.98;100849.59;5051830;28;20041;-73
2022/06/02 11:54:30;;;;;;;1.00;0.68;;;;;;;33.85;18.76;100837.19;5041575;28;20459;-73
2022/06/02 11:57:23;;;;;;;1.52;0.82;;;;;;;32.66;19.07;100853.66;5050420;28;20068;-73
2022/06/02 12:00:26;;;;;;;1.48;0.80;;;;;;;31.42;20.60;100842.16;5049192;28;20549;-72
2022/06/02 12:03:20;;;;;;;1.73;0.70;;;;;;;30.65;21.67;100847.13;5049993;28;20107;-72
2022/06/02 12:06:07;;;;;;;1.38;0.82;;;;;;;29.87;22.38;100837.44;5049497;28;20412;-72
2022/06/02 12:08:55;;;;;;;1.00;0.70;;;;;;;29.65;22.55;100845.84;5043892;28;20488;-73
2022/06/02 12:11:42;;;;;;;1.55;0.60;;;;;;;29.71;22.10;100833.91;5031730;28;20291;-72
2022/06/02 12:14:10;;;;;;;;;;;;;;;29.66;23.01;100822.97;5047453;28;20064;-73
2022/06/02 12:17:05;;;;;;;1.65;0.65;;;;;;;29.18;23.47;100823.19;5047349;28;20321;-72
2022/06/02 12:19:48;;;;;;;0.80;0.60;;;;;;;28.62;23.85;100822.13;5024351;28;20549;-73
2022/06/02 12:22:26;;;;;;;1.23;0.70;;;;;;;28.12;24.37;100826.97;5050628;28;20140;-72
2022/06/02 12:25:00;;;;;;;1.42;0.90;;;;;;;27.47;25.09;100823.44;5051268;28;20417;-72
2022/06/02 12:28:04;;;;;;;1.58;0.70;;;;;;;27.84;24.81;100823.53;5049245;28;20119;-72
2022/06/02 12:31:20;;;;;;;0.93;0.60;;;;;;;27.91;25.15;100831.44;5045244;28;20547;-72
2022/06/02 12:34:07;;;;;;;1.65;0.75;;;;;;;27.64;25.35;100818.69;5016239;28;20563;-72
2022/06/02 12:37:00;;;;;;;1.15;0.80;;;;;;;27.35;26.11;100812.72;5046189;28;20669;-72
2022/06/02 12:39:54;;;;;;;1.58;0.80;;;;;;;27.27;26.75;100811.31;5045308;28;20037;-72
2022/06/02 12:42:57;;;;;;;1.52;0.88;;;;;;;27.38;26.34;100816.81;5045296;28;20037;-72
2022/06/02 12:45:41;;;;;;;1.55;0.82;;;;;;;27.36;26.45;100818.97;5048314;28;20468;-72
2022/06/02 12:48:43;;;;;;;0.80;0.70;;;;;;;27.45;26.16;100812.00;5045941;28;20037;-72
2022/06/02 12:51:50;;;;;;;1.58;0.90;;;;;;;27.31;26.14;100815.13;5048026;28;20033;-72
2022/06/02 12:54:39;;;;;;;2.00;0.70;;;;;;;27.12;25.96;100813.81;5019949;28;20465;-72
2022/06/02 12:57:22;;;;;;;1.30;0.80;;;;;;;27.03;26.30;100804.47;5022504;28;20037;-72
2022/06/02 13:00:00;;;;;;;0.77;0.60;;;;;;;27.10;26.30;100800.50;5042926;28;20037;-72
2022/06/02 13:03:02;;;;;;;1.27;0.90;;;;;;;27.26;26.17;100789.81;5049399;28;20045;-72
2022/06/02 13:05:49;;;;;;;2.47;0.90;;;;;;;26.80;26.60;100798.25;5046120;28;20037;-72